Time;durP1;ratioP1;P1;durP2;ratioP2;P2;SDS_P1;SDS_P2;PMS_P1;PMS_P2;Temp;Humidity;BMP_temperature;BMP_pressure;BME280_temperature;BME280_humidity;BME280_pressure;Samples;Min_cycle;Max_cycle;Signal;HPM_P1;HPM_P2
2022/08/19 00:01:34;;;;;;;;;;;;;;;;;;5018431;28;19998;-27
2022/08/19 00:04:00;;;;;;;;;;;;;;;;;;5017848;28;19956;-27
2022/08/19 00:06:26;;;;;;;;;;;;;;;;;;5018072;28;20264;-27
2022/08/19 00:08:52;;;;;;;;;;;;;;;;;;5018281;28;19940;-28
2022/08/19 00:11:18;;;;;;;;;;;;;;;;;;5017877;28;19917;-27
2022/08/19 00:13:48;;;;;;;;;;;;;;;;;;5017896;28;19963;-27
2022/08/19 00:16:14;;;;;;;;;;;;;;;;;;5017843;28;20409;-28
2022/08/19 00:18:40;;;;;;;;;;;;;;;;;;5018106;28;19910;-28
2022/08/19 00:21:08;;;;;;;;;;;;;;;;;;5017692;28;19997;-27
2022/08/19 00:23:36;;;;;;;;;;;;;;;;;;5017891;28;19910;-27
2022/08/19 00:26:01;;;;;;;;;;;;;;;;;;5017676;28;20368;-28
2022/08/19 00:28:27;;;;;;;;;;;;;;;;;;5017936;28;19937;-28
2022/08/19 00:30:54;;;;;;;;;;;;;;;;;;5017557;28;19924;-28
2022/08/19 00:33:20;;;;;;;;;;;;;;;;;;5017787;28;19983;-27
2022/08/19 00:35:46;;;;;;;;;;;;;;;;;;5017484;28;19914;-27
2022/08/19 00:38:12;;;;;;;;;;;;;;;;;;5017488;28;19910;-27
2022/08/19 00:40:37;;;;;;;;;;;;;;;;;;5016452;28;19953;-27
2022/08/19 00:43:03;;;;;;;;;;;;;;;;;;5017611;28;19984;-27
2022/08/19 00:45:33;;;;;;;;;;;;;;;;;;5017351;28;20265;-27
2022/08/19 00:48:03;;;;;;;;;;;;;;;;;;5017255;28;19921;-28
2022/08/19 00:50:29;;;;;;;;;;;;;;;;;;5017226;28;19910;-28
2022/08/19 00:52:55;;;;;;;;;;;;;;;;;;5017058;28;19944;-27
2022/08/19 00:55:21;;;;;;;;;;;;;;;;;;5017680;28;20253;-27
2022/08/19 00:57:47;;;;;;;;;;;;;;;;;;5017377;28;19916;-27
2022/08/19 01:00:13;;;;;;;;;;;;;;;;;;5017070;28;19952;-28
2022/08/19 01:02:39;;;;;;;;;;;;;;;;;;5016672;28;19917;-27
2022/08/19 01:05:05;;;;;;;;;;;;;;;;;;5017672;28;19910;-28
2022/08/19 01:07:31;;;;;;;;;;;;;;;;;;5015830;28;19913;-28
2022/08/19 01:09:57;;;;;;;;;;;;;;;;;;5016841;28;20233;-27
2022/08/19 01:12:23;;;;;;;;;;;;;;;;;;5016632;28;19921;-28
2022/08/19 01:14:49;;;;;;;;;;;;;;;;;;5016769;28;19910;-27
2022/08/19 01:17:15;;;;;;;;;;;;;;;;;;5016733;28;20012;-27
2022/08/19 01:19:41;;;;;;;;;;;;;;;;;;5017015;28;19913;-27
2022/08/19 01:22:07;;;;;;;;;;;;;;;;;;5016546;28;20012;-27
2022/08/19 01:24:33;;;;;;;;;;;;;;;;;;5016915;28;19971;-27
2022/08/19 01:26:59;;;;;;;;;;;;;;;;;;5016544;28;19913;-27
2022/08/19 01:29:25;;;;;;;;;;;;;;;;;;5016803;28;19957;-27
2022/08/19 01:31:53;;;;;;;;;;;;;;;;;;5016558;28;19957;-27
2022/08/19 01:34:19;;;;;;;;;;;;;;;;;;5016401;28;19909;-28
2022/08/19 01:36:48;;;;;;;;;;;;;;;;;;5016636;28;19964;-27
2022/08/19 01:39:15;;;;;;;;;;;;;;;;;;5016361;28;20245;-28
2022/08/19 01:41:41;;;;;;;;;;;;;;;;;;5016263;28;20403;-27
2022/08/19 01:44:07;;;;;;;;;;;;;;;;;;5016211;28;19909;-28
2022/08/19 01:46:33;;;;;;;;;;;;;;;;;;5016232;28;19910;-28
2022/08/19 01:48:59;;;;;;;;;;;;;;;;;;5016934;28;20345;-28
2022/08/19 01:51:25;;;;;;;;;;;;;;;;;;5016059;28;19919;-28
2022/08/19 01:53:50;;;;;;;;;;;;;;;;;;5016026;28;20356;-28
2022/08/19 01:56:17;;;;;;;;;;;;;;;;;;5016327;28;19944;-27
2022/08/19 01:58:42;;;;;;;;;;;;;;;;;;5015979;28;19913;-27
2022/08/19 02:01:08;;;;;;;;;;;;;;;;;;5015964;28;19932;-28
2022/08/19 02:03:34;;;;;;;;;;;;;;;;;;5015653;28;19928;-27
2022/08/19 02:06:02;;;;;;;;;;;;;;;;;;5015927;28;20069;-28
2022/08/19 02:08:28;;;;;;;;;;;;;;;;;;5015797;28;19924;-27
2022/08/19 02:10:54;;;;;;;;;;;;;;;;;;5015652;28;20348;-27
2022/08/19 02:13:20;;;;;;;;;;;;;;;;;;5016027;28;19948;-27
2022/08/19 02:15:46;;;;;;;;;;;;;;;;;;5016557;28;19913;-28
2022/08/19 02:18:12;;;;;;;;;;;;;;;;;;5015319;28;19992;-28
2022/08/19 02:20:38;;;;;;;;;;;;;;;;;;5016498;28;19987;-28
2022/08/19 02:23:04;;;;;;;;;;;;;;;;;;5015835;28;20353;-27
2022/08/19 02:25:30;;;;;;;;;;;;;;;;;;5014697;28;19909;-27
2022/08/19 02:27:56;;;;;;;;;;;;;;;;;;5015560;28;19921;-27
2022/08/19 02:30:22;;;;;;;;;;;;;;;;;;5015551;28;19913;-27
2022/08/19 02:32:48;;;;;;;;;;;;;;;;;;5015297;28;19928;-28
2022/08/19 02:35:14;;;;;;;;;;;;;;;;;;5015474;28;19937;-28
2022/08/19 02:40:24;;;;;;;;;;;;;;;;;;5015521;28;20299;-28
2022/08/19 02:42:50;;;;;;;;;;;;;;;;;;5015619;28;19914;-28
2022/08/19 02:45:16;;;;;;;;;;;;;;;;;;5015682;28;19925;-27
2022/08/19 02:47:42;;;;;;;;;;;;;;;;;;5015349;28;20230;-28
2022/08/19 02:50:08;;;;;;;;;;;;;;;;;;5015327;28;19920;-28
2022/08/19 02:52:34;;;;;;;;;;;;;;;;;;5015167;28;19917;-27
2022/08/19 02:55:00;;;;;;;;;;;;;;;;;;5015542;28;19913;-27
2022/08/19 02:57:26;;;;;;;;;;;;;;;;;;5015247;28;19992;-27
2022/08/19 02:59:52;;;;;;;;;;;;;;;;;;5015275;28;20004;-28
2022/08/19 03:02:18;;;;;;;;;;;;;;;;;;5015193;28;19925;-27
2022/08/19 03:04:44;;;;;;;;;;;;;;;;;;5015193;28;20268;-27
2022/08/19 03:07:10;;;;;;;;;;;;;;;;;;5015156;28;20008;-28
2022/08/19 03:09:36;;;;;;;;;;;;;;;;;;5015152;28;19957;-27
2022/08/19 03:12:02;;;;;;;;;;;;;;;;;;5014992;28;19917;-28
2022/08/19 03:14:29;;;;;;;;;;;;;;;;;;5015408;28;19948;-27
2022/08/19 03:16:55;;;;;;;;;;;;;;;;;;5015107;28;19909;-28
2022/08/19 03:19:21;;;;;;;;;;;;;;;;;;5015089;28;19914;-28
2022/08/19 03:21:47;;;;;;;;;;;;;;;;;;5014897;28;19909;-28
2022/08/19 03:24:13;;;;;;;;;;;;;;;;;;5015031;28;19917;-28
2022/08/19 03:26:39;;;;;;;;;;;;;;;;;;5015297;28;19910;-27
2022/08/19 03:29:05;;;;;;;;;;;;;;;;;;5015081;28;19913;-27
2022/08/19 03:31:31;;;;;;;;;;;;;;;;;;5018635;28;20264;-28
2022/08/19 03:33:57;;;;;;;;;;;;;;;;;;5018645;28;19967;-27
2022/08/19 03:36:23;;;;;;;;;;;;;;;;;;5018623;28;19928;-28
2022/08/19 03:38:49;;;;;;;;;;;;;;;;;;5018895;28;19909;-28
2022/08/19 03:41:15;;;;;;;;;;;;;;;;;;5018811;28;19937;-27
2022/08/19 03:43:41;;;;;;;;;;;;;;;;;;5018433;28;20403;-27
2022/08/19 03:46:07;;;;;;;;;;;;;;;;;;5018732;28;19914;-27
2022/08/19 03:48:33;;;;;;;;;;;;;;;;;;5018625;28;20233;-27
2022/08/19 03:50:59;;;;;;;;;;;;;;;;;;5018307;28;20007;-28
2022/08/19 03:53:26;;;;;;;;;;;;;;;;;;5018321;28;19944;-28
2022/08/19 03:55:53;;;;;;;;;;;;;;;;;;5018172;28;19924;-28
2022/08/19 03:58:19;;;;;;;;;;;;;;;;;;5017247;28;20403;-27
2022/08/19 04:00:45;;;;;;;;;;;;;;;;;;5018376;28;19917;-27
2022/08/19 04:03:11;;;;;;;;;;;;;;;;;;5017839;28;20280;-28
2022/08/19 04:05:37;;;;;;;;;;;;;;;;;;5018306;28;19987;-28
2022/08/19 04:08:03;;;;;;;;;;;;;;;;;;5018464;28;19917;-28
2022/08/19 04:10:29;;;;;;;;;;;;;;;;;;5017992;28;19925;-28
2022/08/19 04:12:55;;;;;;;;;;;;;;;;;;5017608;28;19917;-28
2022/08/19 04:15:21;;;;;;;;;;;;;;;;;;5017758;28;20003;-28
2022/08/19 04:17:47;;;;;;;;;;;;;;;;;;5017664;28;19940;-28
2022/08/19 04:20:13;;;;;;;;;;;;;;;;;;5017662;28;19917;-27
2022/08/19 04:22:39;;;;;;;;;;;;;;;;;;5017560;28;19909;-27
2022/08/19 04:25:05;;;;;;;;;;;;;;;;;;5017562;28;19920;-27
2022/08/19 04:27:33;;;;;;;;;;;;;;;;;;5017786;28;19910;-27
2022/08/19 04:29:59;;;;;;;;;;;;;;;;;;5017451;28;19914;-28
2022/08/19 04:32:25;;;;;;;;;;;;;;;;;;5017599;28;19972;-27
2022/08/19 04:34:51;;;;;;;;;;;;;;;;;;5017639;28;19983;-27
2022/08/19 04:37:17;;;;;;;;;;;;;;;;;;5017348;28;20311;-27
2022/08/19 04:42:39;;;;;;;;;;;;;;;;;;5017219;28;19925;-27
2022/08/19 04:45:05;;;;;;;;;;;;;;;;;;5016864;28;19909;-28
2022/08/19 04:47:32;;;;;;;;;;;;;;;;;;5016898;28;19917;-28
2022/08/19 04:49:58;;;;;;;;;;;;;;;;;;5016902;28;19913;-27
2022/08/19 04:52:24;;;;;;;;;;;;;;;;;;5016942;28;19928;-28
2022/08/19 04:54:50;;;;;;;;;;;;;;;;;;5016979;28;20252;-28
2022/08/19 04:57:16;;;;;;;;;;;;;;;;;;5016724;28;19929;-27
2022/08/19 04:59:42;;;;;;;;;;;;;;;;;;5016609;28;20494;-28
2022/08/19 05:02:08;;;;;;;;;;;;;;;;;;5016662;28;19910;-27
2022/08/19 05:04:35;;;;;;;;;;;;;;;;;;5016892;28;19917;-27
2022/08/19 05:07:01;;;;;;;;;;;;;;;;;;5016550;28;20009;-28
2022/08/19 05:09:27;;;;;;;;;;;;;;;;;;5016890;28;19963;-27
2022/08/19 05:11:53;;;;;;;;;;;;;;;;;;5016354;28;20142;-27
2022/08/19 05:14:20;;;;;;;;;;;;;;;;;;5016447;28;19910;-27
2022/08/19 05:16:46;;;;;;;;;;;;;;;;;;5016402;28;20315;-28
2022/08/19 05:24:42;;;;;;;;;;;;;;;;;;5016515;28;19920;-27
2022/08/19 05:27:08;;;;;;;;;;;;;;;;;;5016864;28;20245;-28
2022/08/19 05:29:34;;;;;;;;;;;;;;;;;;5016035;28;19921;-28
2022/08/19 05:32:00;;;;;;;;;;;;;;;;;;5015836;28;20411;-28
2022/08/19 05:34:26;;;;;;;;;;;;;;;;;;5015995;28;19965;-28
2022/08/19 05:36:56;;;;;;;;;;;;;;;;;;5015909;28;19933;-28
2022/08/19 05:39:22;;;;;;;;;;;;;;;;;;5016172;28;19913;-28
2022/08/19 05:41:48;;;;;;;;;;;;;;;;;;5016086;28;20242;-28
2022/08/19 05:44:14;;;;;;;;;;;;;;;;;;5015856;28;19957;-28
2022/08/19 05:46:40;;;;;;;;;;;;;;;;;;5016054;28;19906;-28
2022/08/19 05:49:06;;;;;;;;;;;;;;;;;;5015747;28;19913;-28
2022/08/19 05:51:33;;;;;;;;;;;;;;;;;;5015774;28;20226;-27
2022/08/19 05:53:59;;;;;;;;;;;;;;;;;;5015481;28;20390;-28
2022/08/19 05:56:26;;;;;;;;;;;;;;;;;;5015636;28;19964;-28
2022/08/19 05:58:53;;;;;;;;;;;;;;;;;;5015667;28;19910;-27
2022/08/19 06:01:19;;;;;;;;;;;;;;;;;;5015815;28;19914;-28
2022/08/19 06:03:45;;;;;;;;;;;;;;;;;;5015286;28;19948;-28
2022/08/19 06:06:11;;;;;;;;;;;;;;;;;;5016006;28;19913;-28
2022/08/19 06:08:38;;;;;;;;;;;;;;;;;;5015516;28;19976;-28
2022/08/19 06:11:04;;;;;;;;;;;;;;;;;;5015683;28;19917;-27
2022/08/19 06:13:30;;;;;;;;;;;;;;;;;;5015337;28;19914;-28
2022/08/19 06:15:56;;;;;;;;;;;;;;;;;;5015512;28;19913;-27
2022/08/19 06:18:22;;;;;;;;;;;;;;;;;;5015707;28;19993;-28
2022/08/19 06:20:48;;;;;;;;;;;;;;;;;;5015489;28;19967;-28
2022/08/19 06:23:14;;;;;;;;;;;;;;;;;;5015662;28;20303;-28
2022/08/19 06:25:40;;;;;;;;;;;;;;;;;;5015346;28;19946;-28
2022/08/19 06:28:06;;;;;;;;;;;;;;;;;;5015303;28;19967;-28
2022/08/19 06:30:32;;;;;;;;;;;;;;;;;;5015230;28;20004;-28
2022/08/19 06:32:58;;;;;;;;;;;;;;;;;;5015361;28;20008;-28
2022/08/19 06:35:25;;;;;;;;;;;;;;;;;;5015103;28;20015;-28
2022/08/19 06:37:52;;;;;;;;;;;;;;;;;;5014968;28;19920;-28
2022/08/19 06:40:18;;;;;;;;;;;;;;;;;;5015229;28;20318;-28
2022/08/19 06:42:44;;;;;;;;;;;;;;;;;;5015020;28;19964;-27
2022/08/19 06:45:10;;;;;;;;;;;;;;;;;;5016111;28;19925;-28
2022/08/19 06:47:36;;;;;;;;;;;;;;;;;;5015258;28;19913;-28
2022/08/19 06:50:03;;;;;;;;;;;;;;;;;;5013987;28;20344;-27
2022/08/19 06:52:29;;;;;;;;;;;;;;;;;;5014878;28;19913;-28
2022/08/19 06:54:56;;;;;;;;;;;;;;;;;;5015138;28;19981;-27
2022/08/19 06:57:22;;;;;;;;;;;;;;;;;;5014867;28;20307;-28
2022/08/19 06:59:48;;;;;;;;;;;;;;;;;;5014849;28;19925;-27
2022/08/19 07:02:14;;;;;;;;;;;;;;;;;;5014554;28;19909;-28
2022/08/19 07:04:40;;;;;;;;;;;;;;;;;;5017883;28;20016;-28
2022/08/19 07:07:07;;;;;;;;;;;;;;;;;;5018785;28;19914;-28
2022/08/19 07:09:33;;;;;;;;;;;;;;;;;;5018738;28;19914;-27
2022/08/19 07:12:01;;;;;;;;;;;;;;;;;;5017526;28;19992;-28
2022/08/19 07:14:27;;;;;;;;;;;;;;;;;;5019377;28;19909;-27
2022/08/19 07:16:54;;;;;;;;;;;;;;;;;;5018715;28;19910;-28
2022/08/19 07:19:20;;;;;;;;;;;;;;;;;;5018882;28;19914;-27
2022/08/19 07:21:46;;;;;;;;;;;;;;;;;;5018417;28;19912;-28
2022/08/19 07:24:13;;;;;;;;;;;;;;;;;;5018487;28;19913;-27
2022/08/19 07:26:39;;;;;;;;;;;;;;;;;;5018634;28;19937;-27
2022/08/19 07:29:05;;;;;;;;;;;;;;;;;;5018767;28;19910;-28
2022/08/19 07:31:36;;;;;;;;;;;;;;;;;;5018441;28;19984;-27
2022/08/19 07:34:02;;;;;;;;;;;;;;;;;;5018598;28;20279;-28
2022/08/19 07:36:32;;;;;;;;;;;;;;;;;;5018365;28;19913;-28
2022/08/19 07:38:58;;;;;;;;;;;;;;;;;;5018541;28;19914;-28
2022/08/19 07:41:24;;;;;;;;;;;;;;;;;;5018308;28;19996;-28
2022/08/19 07:43:50;;;;;;;;;;;;;;;;;;5018439;28;19945;-28
2022/08/19 07:46:16;;;;;;;;;;;;;;;;;;5019193;28;20280;-27
2022/08/19 07:48:42;;;;;;;;;;;;;;;;;;5018316;28;19992;-27
2022/08/19 07:51:08;;;;;;;;;;;;;;;;;;5017968;28;19949;-27
2022/08/19 07:53:34;;;;;;;;;;;;;;;;;;5017994;28;19917;-27
2022/08/19 07:56:03;;;;;;;;;;;;;;;;;;5018011;28;20395;-27
2022/08/19 07:58:29;;;;;;;;;;;;;;;;;;5018709;28;19944;-27
2022/08/19 08:00:55;;;;;;;;;;;;;;;;;;5017718;28;19940;-28
2022/08/19 08:09:10;;;;;;;;;;;;;;;;;;5016596;28;20012;-27
2022/08/19 08:09:10;;;;;;;;;;;;;;;;;;5017833;28;19979;-27
2022/08/19 08:11:36;;;;;;;;;;;;;;;;;;5017877;28;20253;-27
2022/08/19 08:14:04;;;;;;;;;;;;;;;;;;5017477;28;19936;-28
2022/08/19 08:16:31;;;;;;;;;;;;;;;;;;5017251;28;20284;-27
2022/08/19 08:18:56;;;;;;;;;;;;;;;;;;5017520;28;19914;-27
2022/08/19 08:21:22;;;;;;;;;;;;;;;;;;5018432;28;19927;-27
2022/08/19 08:23:48;;;;;;;;;;;;;;;;;;5017359;28;20300;-27
2022/08/19 08:26:16;;;;;;;;;;;;;;;;;;5017349;28;19987;-27
2022/08/19 08:28:42;;;;;;;;;;;;;;;;;;5017647;28;19909;-27
2022/08/19 08:31:09;;;;;;;;;;;;;;;;;;5017302;28;20052;-27
2022/08/19 08:33:35;;;;;;;;;;;;;;;;;;5017194;28;19996;-28
2022/08/19 08:36:01;;;;;;;;;;;;;;;;;;5017547;28;19961;-28
2022/08/19 08:38:28;;;;;;;;;;;;;;;;;;5017071;28;19925;-27
2022/08/19 08:40:56;;;;;;;;;;;;;;;;;;5017101;28;19914;-27
2022/08/19 08:43:22;;;;;;;;;;;;;;;;;;5017417;28;20256;-28
2022/08/19 08:45:48;;;;;;;;;;;;;;;;;;5017524;28;19913;-28
2022/08/19 08:48:14;;;;;;;;;;;;;;;;;;5017186;28;20395;-27
2022/08/19 08:50:40;;;;;;;;;;;;;;;;;;5017388;28;20017;-27
2022/08/19 08:53:06;;;;;;;;;;;;;;;;;;5016780;28;19921;-28
2022/08/19 08:55:32;;;;;;;;;;;;;;;;;;5016971;28;19916;-27
2022/08/19 08:57:58;;;;;;;;;;;;;;;;;;5017243;28;19925;-27
2022/08/19 09:00:24;;;;;;;;;;;;;;;;;;5016841;28;19921;-27
2022/08/19 09:02:50;;;;;;;;;;;;;;;;;;5016541;28;19976;-27
2022/08/19 09:05:18;;;;;;;;;;;;;;;;;;5016746;28;19935;-27
2022/08/19 09:07:44;;;;;;;;;;;;;;;;;;5016991;28;19967;-28
2022/08/19 09:10:10;;;;;;;;;;;;;;;;;;5016663;28;20283;-28
2022/08/19 09:12:36;;;;;;;;;;;;;;;;;;5016544;28;19917;-27
2022/08/19 09:15:02;;;;;;;;;;;;;;;;;;5016805;28;19921;-28
2022/08/19 09:17:30;;;;;;;;;;;;;;;;;;5016415;28;19924;-28
2022/08/19 09:19:56;;;;;;;;;;;;;;;;;;5016608;28;20264;-28
2022/08/19 09:22:22;;;;;;;;;;;;;;;;;;5016467;28;19941;-28
2022/08/19 09:24:48;;;;;;;;;;;;;;;;;;5016282;28;19913;-28
2022/08/19 09:27:14;;;;;;;;;;;;;;;;;;5015371;28;19963;-28
2022/08/19 09:29:40;;;;;;;;;;;;;;;;;;5016062;28;19909;-27
2022/08/19 09:32:06;;;;;;;;;;;;;;;;;;5014889;28;19939;-28
2022/08/19 09:34:32;;;;;;;;;;;;;;;;;;5015965;28;19914;-28
2022/08/19 09:36:59;;;;;;;;;;;;;;;;;;5015890;28;20012;-27
2022/08/19 09:39:25;;;;;;;;;;;;;;;;;;5015810;28;20432;-28
2022/08/19 09:41:52;;;;;;;;;;;;;;;;;;5015684;28;19953;-27
2022/08/19 09:44:20;;;;;;;;;;;;;;;;;;5015766;28;19910;-27
2022/08/19 09:46:46;;;;;;;;;;;;;;;;;;5015864;28;19914;-27
2022/08/19 09:49:21;;;;;;;;;;;;;;;;;;5092487;27;19912;-23
2022/08/19 09:51:47;;;;;;;;;;;;;;;;;;5092143;28;19912;-22
2022/08/19 09:54:13;;;;;;;;;;;;;;;;;;5093077;28;19908;-22
2022/08/19 09:56:39;;;;;;;;;;;;;;;;;;5092093;28;19912;-25
2022/08/19 09:59:05;;;;;;;;;;;;;;;;;;5092024;28;20348;-25
2022/08/19 10:01:31;;;;;;;;;;;;;;;;;;5092370;28;20260;-26
2022/08/19 10:03:57;;;;;;;;;;;;;;;;;;5092119;28;19940;-25
2022/08/19 10:06:23;;;;;;;;;;;;;;;;;;5091010;28;19935;-25
2022/08/19 10:08:49;;;;;;;;;;;;;;;;;;5092086;28;19963;-24
2022/08/19 10:11:16;;;;;;;;;;;;;;;;;;5091899;28;20377;-29
2022/08/19 10:13:42;;;;;;;;;;;;;;;;;;5091725;28;19912;-25
2022/08/19 10:16:08;;;;;;;;;;;;;;;;;;5091739;28;20379;-27
2022/08/19 10:18:35;;;;;;;;;;;;;;;;;;5092090;28;19913;-26
2022/08/19 10:21:00;;;;;;;;;;;;;;;;;;5091722;28;19917;-25
2022/08/19 10:23:29;;;;;;;;;;;;;;;;;;5091875;28;20331;-25
2022/08/19 10:25:55;;;;;;;;;;;;;;;;;;5091838;28;19913;-24
2022/08/19 10:28:22;;;;;;;;;;;;;;;;;;5091734;28;20353;-26
2022/08/19 10:30:48;;;;;;;;;;;;;;;;;;5091838;28;19917;-26
2022/08/19 10:33:14;;;;;;;;;;;;;;;;;;5091384;28;20325;-26
2022/08/19 10:35:40;;;;;;;;;;;;;;;;;;5091427;28;20255;-25
2022/08/19 10:38:06;;;;;;;;;;;;;;;;;;5091463;28;19970;-25
2022/08/19 10:40:32;;;;;;;;;;;;;;;;;;5091218;28;19912;-24
2022/08/19 10:42:58;;;;;;;;;;;;;;;;;;5091218;28;19909;-24
2022/08/19 10:45:26;;;;;;;;;;;;;;;;;;5091205;28;19912;-25
2022/08/19 10:47:52;;;;;;;;;;;;;;;;;;5099245;28;19931;-26
2022/08/19 10:53:02;;;;;;;;;;;;;;;;;;5111703;28;20263;-27
2022/08/19 10:58:13;;;;;;;;;;;;;;;;;;5111354;28;19961;-25
2022/08/19 11:00:40;;;;;;;;;;;;;;;;;;5098051;28;20002;-25
2022/08/19 11:03:06;;;;;;;;;;;;;;;;;;5097750;28;19915;-24
2022/08/19 11:05:32;;;;;;;;;;;;;;;;;;5097798;28;19942;-25
2022/08/19 11:07:58;;;;;;;;;;;;;;;;;;5097971;28;19994;-25
2022/08/19 11:10:24;;;;;;;;;;;;;;;;;;5097607;28;20343;-24
2022/08/19 11:12:54;;;;;;;;;;;;;;;;;;5097843;28;19977;-25
2022/08/19 11:15:20;;;;;;;;;;;;;;;;;;5097514;28;19912;-24
2022/08/19 11:17:46;;;;;;;;;;;;;;;;;;5097358;28;19923;-26
2022/08/19 11:20:12;;;;;;;;;;;;;;;;;;5097373;28;19912;-25
2022/08/19 11:22:38;;;;;;;;;;;;;;;;;;5097443;28;20442;-24
2022/08/19 11:25:04;;;;;;;;;;;;;;;;;;5097229;28;19913;-22
2022/08/19 11:27:30;;;;;;;;;;;;;;;;;;5096990;28;20381;-25
2022/08/19 11:29:56;;;;;;;;;;;;;;;;;;5097337;28;19916;-26
2022/08/19 11:32:22;;;;;;;;;;;;;;;;;;5097191;28;19916;-25
2022/08/19 11:34:48;;;;;;;;;;;;;;;;;;5097342;28;19999;-24
2022/08/19 11:37:15;;;;;;;;;;;;;;;;;;5097254;28;19935;-24
2022/08/19 11:39:41;;;;;;;;;;;;;;;;;;5096865;28;19970;-25
2022/08/19 11:44:53;;;;;;;;;;;;;;;;;;5065767;28;19909;-24
2022/08/19 11:47:19;;;;;;;;;;;;;;;;;;5096863;28;19920;-25
2022/08/19 11:49:45;;;;;;;;;;;;;;;;;;5097189;28;19908;-30
2022/08/19 11:52:11;;;;;;;;;;;;;;;;;;5096643;28;19912;-28
2022/08/19 11:54:37;;;;;;;;;;;;;;;;;;5096994;28;19987;-30
2022/08/19 11:57:03;;;;;;;;;;;;;;;;;;5096957;28;19912;-24
2022/08/19 11:59:29;;;;;;;;;;;;;;;;;;5096768;28;19916;-25
2022/08/19 12:01:55;;;;;;;;;;;;;;;;;;5096435;28;19935;-29
2022/08/19 12:04:21;;;;;;;;;;;;;;;;;;5096466;28;19912;-25
2022/08/19 12:06:47;;;;;;;;;;;;;;;;;;5096354;28;19961;-24
2022/08/19 12:09:15;;;;;;;;;;;;;;;;;;5096645;28;19923;-25
2022/08/19 12:11:41;;;;;;;;;;;;;;;;;;5095303;28;19912;-24
2022/08/19 12:14:07;;;;;;;;;;;;;;;;;;5096209;28;20244;-24
2022/08/19 12:16:33;;;;;;;;;;;;;;;;;;5096390;28;19930;-27
2022/08/19 12:19:03;;;;;;;;;;;;;;;;;;5096124;28;20010;-27
2022/08/19 12:21:29;;;;;;;;;;;;;;;;;;5096459;28;20219;-26
2022/08/19 12:23:55;;;;;;;;;;;;;;;;;;5095137;28;19908;-26
2022/08/19 12:26:21;;;;;;;;;;;;;;;;;;5096070;28;19969;-25
2022/08/19 12:28:48;;;;;;;;;;;;;;;;;;5096210;28;19920;-25
2022/08/19 12:31:13;;;;;;;;;;;;;;;;;;5095934;28;20301;-26
2022/08/19 12:33:40;;;;;;;;;;;;;;;;;;5096166;28;19967;-25
2022/08/19 12:36:06;;;;;;;;;;;;;;;;;;5095983;28;19922;-26
2022/08/19 12:38:32;;;;;;;;;;;;;;;;;;5096726;28;19998;-25
2022/08/19 12:40:58;;;;;;;;;;;;;;;;;;5096096;28;19969;-25
2022/08/19 12:43:24;;;;;;;;;;;;;;;;;;5095860;28;20014;-25
2022/08/19 12:45:50;;;;;;;;;;;;;;;;;;5095659;28;19914;-26
2022/08/19 12:48:16;;;;;;;;;;;;;;;;;;5095344;28;20327;-27
2022/08/19 12:50:42;;;;;;;;;;;;;;;;;;5095792;28;19957;-25
2022/08/19 12:53:08;;;;;;;;;;;;;;;;;;5095678;28;19927;-25
2022/08/19 12:55:34;;;;;;;;;;;;;;;;;;5095695;28;20378;-25
2022/08/19 12:58:01;;;;;;;;;;;;;;;;;;5095589;28;19912;-22
2022/08/19 13:00:27;;;;;;;;;;;;;;;;;;5095596;28;19916;-22
2022/08/19 13:02:53;;;;;;;;;;;;;;;;;;5095176;28;19962;-25
2022/08/19 13:05:20;;;;;;;;;;;;;;;;;;5095243;28;19915;-24
2022/08/19 13:07:46;;;;;;;;;;;;;;;;;;5095417;28;20235;-24
2022/08/19 13:10:12;;;;;;;;;;;;;;;;;;5095402;28;19957;-26
2022/08/19 13:12:38;;;;;;;;;;;;;;;;;;5095340;28;19912;-25
2022/08/19 13:15:04;;;;;;;;;;;;;;;;;;5095363;28;20354;-25
2022/08/19 13:17:30;;;;;;;;;;;;;;;;;;5095147;28;19912;-25
2022/08/19 13:19:56;;;;;;;;;;;;;;;;;;5095078;28;19912;-26
2022/08/19 13:22:23;;;;;;;;;;;;;;;;;;5094720;28;19916;-24
2022/08/19 13:24:49;;;;;;;;;;;;;;;;;;5095366;28;19939;-26
2022/08/19 13:27:15;;;;;;;;;;;;;;;;;;5095178;28;19912;-24
2022/08/19 13:35:11;;;;;;;;;;;;;;;;;;5095176;28;19919;-25
2022/08/19 13:37:42;;;;;;;;;;;;;;;;;;5094743;28;19918;-24
2022/08/19 13:40:12;;;;;;;;;;;;;;;;;;5095045;28;19912;-28
2022/08/19 13:42:38;;;;;;;;;;;;;;;;;;5094704;28;19967;-25
2022/08/19 13:45:06;;;;;;;;;;;;;;;;;;5094815;28;19913;-25
2022/08/19 13:47:34;;;;;;;;;;;;;;;;;;5094558;28;19933;-25
2022/08/19 13:50:00;;;;;;;;;;;;;;;;;;5095031;28;20254;-24
2022/08/19 13:52:26;;;;;;;;;;;;;;;;;;5094724;28;19908;-25
2022/08/19 13:54:52;;;;;;;;;;;;;;;;;;5094951;28;19924;-25
2022/08/19 13:57:18;;;;;;;;;;;;;;;;;;5094915;28;19966;-25
2022/08/19 13:59:44;;;;;;;;;;;;;;;;;;5094748;28;20285;-25
2022/08/19 14:02:10;;;;;;;;;;;;;;;;;;5093542;28;19923;-26
2022/08/19 14:04:37;;;;;;;;;;;;;;;;;;5095423;28;19950;-25
2022/08/19 14:07:03;;;;;;;;;;;;;;;;;;5094596;28;19951;-25
2022/08/19 14:09:29;;;;;;;;;;;;;;;;;;5094721;28;20258;-25
2022/08/19 14:11:55;;;;;;;;;;;;;;;;;;5094400;28;20006;-24
2022/08/19 14:14:21;;;;;;;;;;;;;;;;;;5094547;28;20260;-24
2022/08/19 14:16:47;;;;;;;;;;;;;;;;;;5095063;28;20001;-24
2022/08/19 14:19:13;;;;;;;;;;;;;;;;;;5094524;28;19912;-27
2022/08/19 14:21:40;;;;;;;;;;;;;;;;;;5094344;28;19912;-25
2022/08/19 14:24:06;;;;;;;;;;;;;;;;;;5094417;28;20013;-28
2022/08/19 14:26:32;;;;;;;;;;;;;;;;;;5094606;28;19912;-29
2022/08/19 14:28:58;;;;;;;;;;;;;;;;;;5094269;28;20305;-25
2022/08/19 14:31:25;;;;;;;;;;;;;;;;;;5095504;28;20270;-29
2022/08/19 14:33:51;;;;;;;;;;;;;;;;;;5094295;28;19912;-25
2022/08/19 14:36:17;;;;;;;;;;;;;;;;;;5098133;28;20292;-26
2022/08/19 14:38:43;;;;;;;;;;;;;;;;;;5098374;28;20058;-25
2022/08/19 14:41:09;;;;;;;;;;;;;;;;;;5098199;28;20251;-26
2022/08/19 14:43:35;;;;;;;;;;;;;;;;;;5097976;28;19912;-26
2022/08/19 14:46:01;;;;;;;;;;;;;;;;;;5098027;28;19935;-25
2022/08/19 14:48:27;;;;;;;;;;;;;;;;;;5097809;28;19960;-25
2022/08/19 14:50:53;;;;;;;;;;;;;;;;;;5097934;28;20317;-27
2022/08/19 14:53:19;;;;;;;;;;;;;;;;;;5098013;28;19995;-24
2022/08/19 14:55:45;;;;;;;;;;;;;;;;;;5097807;28;19965;-25
2022/08/19 14:58:12;;;;;;;;;;;;;;;;;;5098530;28;19916;-24
2022/08/19 15:00:38;;;;;;;;;;;;;;;;;;5097669;28;19957;-28
2022/08/19 15:03:04;;;;;;;;;;;;;;;;;;5097718;28;19912;-24
2022/08/19 15:05:30;;;;;;;;;;;;;;;;;;5097607;28;20327;-25
2022/08/19 15:07:56;;;;;;;;;;;;;;;;;;5097524;28;20011;-24
2022/08/19 15:10:23;;;;;;;;;;;;;;;;;;5097357;28;19912;-24
2022/08/19 15:12:49;;;;;;;;;;;;;;;;;;5097529;28;19911;-25
2022/08/19 15:15:17;;;;;;;;;;;;;;;;;;5097691;28;19915;-24
2022/08/19 15:17:43;;;;;;;;;;;;;;;;;;5097910;28;20246;-26
2022/08/19 15:20:09;;;;;;;;;;;;;;;;;;5097366;28;19916;-25
2022/08/19 15:22:35;;;;;;;;;;;;;;;;;;5097494;28;20007;-25
2022/08/19 15:25:01;;;;;;;;;;;;;;;;;;5097551;28;19920;-25
2022/08/19 15:27:27;;;;;;;;;;;;;;;;;;5097238;28;20224;-24
2022/08/19 15:29:53;;;;;;;;;;;;;;;;;;5097207;28;20351;-25
2022/08/19 15:32:19;;;;;;;;;;;;;;;;;;5096107;28;19912;-25
2022/08/19 15:34:48;;;;;;;;;;;;;;;;;;5097089;28;20349;-26
2022/08/19 15:37:14;;;;;;;;;;;;;;;;;;5097103;28;19919;-26
2022/08/19 15:39:40;;;;;;;;;;;;;;;;;;5096975;28;19920;-24
2022/08/19 15:42:06;;;;;;;;;;;;;;;;;;5097070;28;19912;-25
2022/08/19 15:44:33;;;;;;;;;;;;;;;;;;5096906;28;19912;-25
2022/08/19 15:46:59;;;;;;;;;;;;;;;;;;5096462;28;19923;-26
2022/08/19 15:49:25;;;;;;;;;;;;;;;;;;5097085;28;19912;-29
2022/08/19 15:51:53;;;;;;;;;;;;;;;;;;5096754;28;19951;-25
2022/08/19 15:54:20;;;;;;;;;;;;;;;;;;5096731;28;19916;-25
2022/08/19 16:07:46;;;;;;;;;;;;;;;;;;5096867;28;19974;-25
2022/08/19 16:10:13;;;;;;;;;;;;;;;;;;5096811;28;19916;-27
2022/08/19 16:12:40;;;;;;;;;;;;;;;;;;5096356;28;19912;-25
2022/08/19 16:15:06;;;;;;;;;;;;;;;;;;5096360;28;19908;-24
2022/08/19 16:17:34;;;;;;;;;;;;;;;;;;5096300;28;19998;-25
2022/08/19 16:20:00;;;;;;;;;;;;;;;;;;5096343;28;19910;-24
2022/08/19 16:22:26;;;;;;;;;;;;;;;;;;5096241;28;20274;-25
2022/08/19 16:24:52;;;;;;;;;;;;;;;;;;5096522;28;20010;-24
2022/08/19 16:27:18;;;;;;;;;;;;;;;;;;5096175;28;19908;-24
2022/08/19 16:29:44;;;;;;;;;;;;;;;;;;5096066;28;19937;-25
2022/08/19 16:32:10;;;;;;;;;;;;;;;;;;5096239;28;20332;-28
2022/08/19 16:34:36;;;;;;;;;;;;;;;;;;5096107;28;20258;-24
2022/08/19 16:37:02;;;;;;;;;;;;;;;;;;5096065;28;19961;-25
2022/08/19 16:39:28;;;;;;;;;;;;;;;;;;5096289;28;19916;-24
2022/08/19 16:41:54;;;;;;;;;;;;;;;;;;5096285;28;19935;-24
2022/08/19 16:44:20;;;;;;;;;;;;;;;;;;5095947;28;19998;-26
2022/08/19 16:46:46;;;;;;;;;;;;;;;;;;5095886;28;19943;-24
2022/08/19 16:49:13;;;;;;;;;;;;;;;;;;5097037;28;19970;-24
2022/08/19 16:51:40;;;;;;;;;;;;;;;;;;5095695;28;19912;-26
2022/08/19 16:54:06;;;;;;;;;;;;;;;;;;5095671;28;19908;-25
2022/08/19 16:56:32;;;;;;;;;;;;;;;;;;5095605;28;20247;-25
2022/08/19 16:59:01;;;;;;;;;;;;;;;;;;5095314;28;20012;-26
2022/08/19 17:01:27;;;;;;;;;;;;;;;;;;5095482;28;19995;-27
2022/08/19 17:03:53;;;;;;;;;;;;;;;;;;5095536;28;19978;-25
2022/08/19 17:06:19;;;;;;;;;;;;;;;;;;5095509;28;19923;-26
2022/08/19 17:08:45;;;;;;;;;;;;;;;;;;5095612;28;20238;-27
2022/08/19 17:11:11;;;;;;;;;;;;;;;;;;5095189;28;20314;-26
2022/08/19 17:13:37;;;;;;;;;;;;;;;;;;5095277;28;19918;-25
2022/08/19 17:16:03;;;;;;;;;;;;;;;;;;5095511;28;19912;-24
2022/08/19 17:18:31;;;;;;;;;;;;;;;;;;5095351;28;20268;-25